Time;durP1;ratioP1;P1;durP2;ratioP2;P2;SDS_P1;SDS_P2;PMS_P1;PMS_P2;Temp;Humidity;BMP_temperature;BMP_pressure;BME280_temperature;BME280_humidity;BME280_pressure;Samples;Min_cycle;Max_cycle;Signal;HPM_P1;HPM_P2
2021/04/26 00:00:24;;;;;;;10.97;6.10;;;3.90;99.90;;;;;;5014368;28;20246;-63
2021/04/26 00:02:50;;;;;;;7.37;5.67;;;3.90;99.90;;;;;;5015142;28;20176;-63
2021/04/26 00:05:16;;;;;;;13.73;5.30;;;3.90;99.90;;;;;;5014755;28;20575;-63
2021/04/26 00:07:41;;;;;;;9.77;4.83;;;3.90;99.90;;;;;;5014748;28;20299;-63
2021/04/26 00:10:09;;;;;;;8.43;4.67;;;3.90;99.90;;;;;;5014440;28;20176;-63
2021/04/26 00:12:35;;;;;;;8.27;4.63;;;3.90;99.90;;;;;;5014152;28;20180;-63
2021/04/26 00:15:00;;;;;;;11.40;4.60;;;4.00;99.90;;;;;;5014678;28;20200;-63
2021/04/26 00:17:26;;;;;;;8.17;5.00;;;4.00;99.90;;;;;;5014902;28;20258;-63
2021/04/26 00:19:52;;;;;;;7.00;4.93;;;4.00;99.90;;;;;;5014260;28;20227;-63
2021/04/26 00:22:17;;;;;;;6.20;4.97;;;4.00;99.90;;;;;;5015186;28;20224;-63
2021/04/26 00:24:43;;;;;;;16.07;6.07;;;3.90;99.90;;;;;;5014235;28;20187;-63
2021/04/26 00:27:09;;;;;;;9.13;5.83;;;3.80;99.90;;;;;;5014095;28;20250;-63
2021/04/26 00:29:35;;;;;;;8.77;5.10;;;3.70;99.90;;;;;;5014555;28;20168;-63
2021/04/26 00:32:00;;;;;;;7.93;4.23;;;3.80;99.90;;;;;;5013833;28;20535;-63
2021/04/26 00:34:26;;;;;;;6.60;4.43;;;3.70;99.90;;;;;;5014328;28;20606;-63
2021/04/26 00:36:52;;;;;;;6.57;4.97;;;3.70;99.90;;;;;;5014236;28;20262;-64
2021/04/26 00:39:17;;;;;;;6.33;4.57;;;3.70;99.90;;;;;;5014360;28;20200;-63
2021/04/26 00:41:43;;;;;;;15.23;5.37;;;3.60;99.90;;;;;;5013708;28;20184;-62
2021/04/26 00:44:09;;;;;;;10.00;5.40;;;3.60;99.90;;;;;;5014106;28;20242;-62
2021/04/26 00:46:34;;;;;;;10.10;5.97;;;3.60;99.90;;;;;;5013833;28;20196;-62
2021/04/26 00:49:00;;;;;;;7.83;5.67;;;3.60;99.90;;;;;;5013443;28;20669;-63
2021/04/26 00:51:26;;;;;;;8.23;5.03;;;3.70;99.90;;;;;;5013395;28;20223;-62
2021/04/26 00:53:52;;;;;;;7.73;4.93;;;3.60;99.90;;;;;;5014089;28;20594;-62
2021/04/26 00:56:18;;;;;;;7.77;5.13;;;3.60;99.90;;;;;;5013852;28;20696;-62
2021/04/26 00:58:43;;;;;;;6.03;4.73;;;3.60;99.90;;;;;;5013484;28;20211;-62
2021/04/26 01:01:09;;;;;;;7.30;5.20;;;3.60;99.90;;;;;;5012974;28;20697;-61
2021/04/26 01:03:36;;;;;;;8.23;5.37;;;3.50;99.90;;;;;;5013722;28;20540;-62
2021/04/26 01:06:02;;;;;;;10.70;5.10;;;3.60;99.90;;;;;;5013525;28;20216;-62
2021/04/26 01:08:28;;;;;;;9.97;6.13;;;3.60;99.90;;;;;;5013550;28;20254;-62
2021/04/26 01:10:54;;;;;;;7.13;4.80;;;3.50;99.90;;;;;;5013031;28;20537;-62
2021/04/26 01:13:47;;;;;;;8.10;5.50;;;3.50;99.90;;;;;;5013697;28;20207;-62
2021/04/26 01:16:27;;;;;;;5.90;4.93;;;3.50;99.90;;;;;;5013335;28;20184;-62
2021/04/26 01:19:17;;;;;;;9.20;5.73;;;3.50;99.90;;;;;;5013241;28;20673;-62
2021/04/26 01:22:20;;;;;;;13.70;5.60;;;3.30;99.90;;;;;;5013098;28;20176;-62
2021/04/26 01:24:55;;;;;;;6.90;5.70;;;3.30;99.90;;;;;;4985279;28;20283;-62
2021/04/26 01:27:27;;;;;;;15.60;6.37;;;3.20;99.90;;;;;;5013162;28;20584;-62
2021/04/26 01:30:04;;;;;;;7.30;6.17;;;3.10;99.90;;;;;;5012068;28;20634;-62
2021/04/26 01:32:49;;;;;;;9.57;5.50;;;3.00;99.90;;;;;;5012899;28;20176;-63
2021/04/26 01:35:19;;;;;;;10.73;7.23;;;3.00;99.90;;;;;;5013368;28;20645;-64
2021/04/26 01:37:49;;;;;;;8.13;6.20;;;2.80;99.90;;;;;;5013221;28;20253;-63
2021/04/26 01:40:17;;;;;;;13.97;7.17;;;2.70;99.90;;;;;;5012813;28;20191;-62
2021/04/26 01:42:46;;;;;;;9.47;7.13;;;2.60;99.90;;;;;;5012834;28;20184;-63
2021/04/26 01:45:16;;;;;;;11.00;6.63;;;2.60;99.90;;;;;;5013255;28;20282;-62
2021/04/26 01:47:42;;;;;;;11.83;6.50;;;2.50;99.90;;;;;;5012537;28;20220;-63
2021/04/26 01:50:11;;;;;;;8.13;6.77;;;2.50;99.90;;;;;;5012617;28;20176;-62
2021/04/26 01:52:37;;;;;;;11.23;6.70;;;2.40;99.90;;;;;;5012962;28;20172;-68
2021/04/26 01:55:08;;;;;;;11.53;6.83;;;2.40;99.90;;;;;;5013354;28;20247;-68
2021/04/26 01:57:36;;;;;;;8.67;6.33;;;2.40;99.90;;;;;;5013497;28;20683;-67
2021/04/26 02:00:18;;;;;;;10.00;6.50;;;2.50;99.90;;;;;;5013116;28;20601;-66
2021/04/26 02:02:44;;;;;;;16.03;7.37;;;2.40;99.90;;;;;;5013728;28;20191;-67
2021/04/26 02:05:11;;;;;;;14.00;8.23;;;2.40;99.90;;;;;;5012098;28;20204;-71
2021/04/26 02:07:37;;;;;;;11.17;7.23;;;2.40;99.90;;;;;;5013393;28;20196;-67
2021/04/26 02:10:05;;;;;;;11.53;7.23;;;2.30;99.90;;;;;;5013340;28;20270;-66
2021/04/26 02:12:32;;;;;;;12.37;5.73;;;2.20;99.90;;;;;;5013300;28;20264;-65
2021/04/26 02:14:58;;;;;;;9.50;6.67;;;2.20;99.90;;;;;;5013258;28;20180;-68
2021/04/26 02:17:25;;;;;;;13.50;7.10;;;2.10;99.90;;;;;;5013573;28;20196;-64
2021/04/26 02:19:51;;;;;;;11.10;7.90;;;2.10;99.90;;;;;;5012872;28;20538;-69
2021/04/26 02:22:17;;;;;;;13.00;7.10;;;2.10;99.90;;;;;;5013386;28;20175;-66
2021/04/26 02:24:42;;;;;;;13.77;7.40;;;2.00;99.90;;;;;;5012907;28;20188;-70
2021/04/26 02:27:08;;;;;;;10.63;6.20;;;2.00;99.90;;;;;;5013104;28;20184;-69
2021/04/26 02:29:34;;;;;;;13.57;6.20;;;1.90;99.90;;;;;;5012917;28;20172;-66
2021/04/26 02:32:06;;;;;;;14.07;6.60;;;2.00;99.90;;;;;;5012903;28;20251;-68
2021/04/26 02:34:41;;;;;;;12.50;6.43;;;2.00;99.90;;;;;;5011740;28;20212;-66
2021/04/26 02:37:12;;;;;;;12.27;6.97;;;1.90;99.90;;;;;;5013445;28;20171;-66
2021/04/26 02:39:39;;;;;;;14.10;7.43;;;1.90;99.90;;;;;;5012937;28;20646;-65
2021/04/26 02:42:07;;;;;;;10.67;7.13;;;1.90;99.90;;;;;;5012945;28;20175;-65
2021/04/26 02:44:34;;;;;;;12.03;7.93;;;1.90;99.90;;;;;;5012666;28;20180;-66
2021/04/26 02:47:14;;;;;;;14.37;7.97;;;1.80;99.90;;;;;;5013043;28;20203;-67
2021/04/26 02:49:42;;;;;;;10.47;7.40;;;1.80;99.90;;;;;;5012758;28;20188;-65
2021/04/26 02:52:09;;;;;;;10.37;6.93;;;1.80;99.90;;;;;;5012676;28;20569;-65
2021/04/26 02:54:35;;;;;;;13.40;7.40;;;1.80;99.90;;;;;;5012715;28;20180;-67
2021/04/26 02:57:02;;;;;;;11.97;7.93;;;1.70;99.90;;;;;;5013093;28;20226;-70
2021/04/26 02:59:29;;;;;;;13.90;8.03;;;1.70;99.90;;;;;;5012496;28;20219;-65
2021/04/26 03:01:55;;;;;;;12.40;7.73;;;1.60;99.90;;;;;;5012341;28;20203;-66
2021/04/26 03:04:23;;;;;;;12.07;7.77;;;1.50;99.90;;;;;;5012552;28;20658;-69
2021/04/26 03:06:51;;;;;;;12.33;7.00;;;1.50;99.90;;;;;;5012861;28;20624;-69
2021/04/26 03:09:18;;;;;;;13.13;7.80;;;1.50;99.90;;;;;;5012794;28;20223;-67
2021/04/26 03:11:45;;;;;;;13.50;8.20;;;1.50;99.90;;;;;;5014488;28;20239;-66
2021/04/26 03:14:12;;;;;;;12.83;7.70;;;1.50;99.90;;;;;;5019477;28;20171;-67
2021/04/26 03:16:39;;;;;;;14.70;8.93;;;1.40;99.90;;;;;;5019185;28;20198;-67
2021/04/26 03:19:09;;;;;;;11.20;8.37;;;1.40;99.90;;;;;;5019611;28;20190;-66
2021/04/26 03:21:36;;;;;;;10.53;8.67;;;1.40;99.90;;;;;;5018569;28;20195;-67
2021/04/26 03:24:03;;;;;;;14.00;7.43;;;1.30;99.90;;;;;;5018789;28;20175;-64
2021/04/26 03:26:31;;;;;;;12.47;7.37;;;1.20;99.90;;;;;;5018526;28;20207;-66
2021/04/26 03:28:58;;;;;;;14.47;8.53;;;1.20;99.90;;;;;;5018246;28;20203;-66
2021/04/26 03:31:25;;;;;;;15.47;9.13;;;1.20;99.90;;;;;;5017239;28;20172;-66
2021/04/26 03:33:51;;;;;;;14.30;8.77;;;1.20;99.90;;;;;;5019036;28;20180;-67
2021/04/26 03:36:17;;;;;;;17.97;9.07;;;1.10;99.90;;;;;;5018609;28;20184;-65
2021/04/26 03:38:44;;;;;;;16.70;9.13;;;1.10;99.90;;;;;;5018849;28;20739;-66
2021/04/26 03:41:10;;;;;;;12.30;8.40;;;1.10;99.90;;;;;;5018442;28;20219;-66
2021/04/26 03:43:35;;;;;;;12.00;8.80;;;1.00;99.90;;;;;;5018913;28;20589;-67
2021/04/26 03:46:03;;;;;;;14.87;9.33;;;1.00;99.90;;;;;;5018704;28;20210;-65
2021/04/26 03:48:29;;;;;;;17.10;8.97;;;1.10;99.90;;;;;;5018754;28;20188;-64
2021/04/26 03:50:54;;;;;;;13.27;9.77;;;1.10;99.90;;;;;;5018383;28;20199;-67
2021/04/26 03:53:20;;;;;;;19.03;9.40;;;1.00;99.90;;;;;;5018446;28;20168;-62
2021/04/26 03:55:46;;;;;;;14.27;8.50;;;1.00;99.90;;;;;;5017600;28;20647;-62
2021/04/26 03:58:12;;;;;;;18.30;8.73;;;0.90;99.90;;;;;;5017720;28;20296;-62
2021/04/26 04:00:37;;;;;;;15.73;9.07;;;0.90;99.90;;;;;;5017302;28;20230;-62
2021/04/26 04:03:05;;;;;;;19.20;10.07;;;0.90;99.90;;;;;;5017973;28;20595;-62
2021/04/26 04:05:30;;;;;;;15.03;8.60;;;1.00;99.90;;;;;;5017474;28;20294;-62
2021/04/26 04:07:56;;;;;;;14.00;8.40;;;0.90;99.90;;;;;;5017835;28;20275;-62
2021/04/26 04:10:22;;;;;;;16.57;9.57;;;0.90;99.90;;;;;;5017687;28;20199;-62
2021/04/26 04:12:47;;;;;;;15.30;9.53;;;0.90;99.90;;;;;;5017659;28;20172;-62
2021/04/26 04:15:13;;;;;;;14.03;8.70;;;1.00;99.90;;;;;;5017562;28;20203;-63
2021/04/26 04:17:39;;;;;;;15.60;9.27;;;0.90;99.90;;;;;;5017863;28;20265;-63
2021/04/26 04:20:09;;;;;;;15.03;9.17;;;0.90;99.90;;;;;;5017128;28;20172;-62
2021/04/26 04:22:35;;;;;;;12.63;8.97;;;0.90;99.90;;;;;;5016800;28;20351;-62
2021/04/26 04:25:01;;;;;;;16.40;10.13;;;0.90;99.90;;;;;;5013728;28;20200;-62
2021/04/26 04:27:27;;;;;;;13.30;9.43;;;0.90;99.90;;;;;;5014390;28;20206;-62
2021/04/26 04:29:52;;;;;;;12.33;8.57;;;0.90;99.90;;;;;;5013927;28;20186;-62
2021/04/26 04:32:18;;;;;;;17.53;10.03;;;1.00;99.90;;;;;;5014225;28;20203;-63
2021/04/26 04:34:43;;;;;;;17.27;10.40;;;0.90;99.90;;;;;;5013457;28;20533;-62
2021/04/26 04:37:09;;;;;;;23.47;8.73;;;0.90;99.90;;;;;;5014356;28;20615;-63
2021/04/26 04:39:35;;;;;;;14.63;8.47;;;0.90;99.90;;;;;;5013709;28;20180;-63
2021/04/26 04:42:00;;;;;;;13.53;8.90;;;1.00;99.90;;;;;;5013974;28;20192;-63
2021/04/26 04:44:26;;;;;;;13.57;9.40;;;1.00;99.90;;;;;;5013789;28;20171;-62
2021/04/26 04:46:51;;;;;;;18.97;9.67;;;1.20;99.90;;;;;;5014121;28;20207;-63
2021/04/26 04:49:17;;;;;;;14.43;9.07;;;1.30;99.90;;;;;;5014130;28;20200;-63
2021/04/26 04:51:45;;;;;;;13.00;9.47;;;1.50;99.90;;;;;;5013832;28;20531;-63
2021/04/26 04:54:11;;;;;;;19.03;9.83;;;1.60;99.90;;;;;;5013629;28;20195;-62
2021/04/26 04:56:38;;;;;;;14.87;9.33;;;1.70;99.90;;;;;;5013909;28;20172;-63
2021/04/26 04:59:08;;;;;;;18.07;9.40;;;1.80;99.90;;;;;;5013575;28;20196;-63
2021/04/26 05:01:33;;;;;;;10.63;8.20;;;2.00;99.90;;;;;;5013514;28;20207;-61
2021/04/26 05:04:00;;;;;;;20.40;8.80;;;2.10;99.90;;;;;;5013727;28;20210;-62
2021/04/26 05:06:25;;;;;;;17.83;9.47;;;2.20;99.90;;;;;;5013651;28;20200;-62
2021/04/26 05:08:52;;;;;;;16.80;7.67;;;2.20;99.90;;;;;;5013310;28;20254;-61
2021/04/26 05:11:18;;;;;;;18.17;8.70;;;2.30;99.90;;;;;;5012001;28;20180;-62
2021/04/26 05:13:44;;;;;;;16.97;8.87;;;2.40;99.90;;;;;;5013191;28;20199;-62
2021/04/26 05:16:10;;;;;;;15.90;8.77;;;2.40;99.90;;;;;;5013515;28;20179;-63
2021/04/26 05:18:37;;;;;;;14.80;9.17;;;2.50;99.90;;;;;;5012957;28;20192;-63
2021/04/26 05:21:03;;;;;;;12.57;9.13;;;2.60;99.90;;;;;;5013155;28;20172;-63
2021/04/26 05:23:30;;;;;;;14.67;8.30;;;2.70;99.90;;;;;;5012893;28;20184;-63
2021/04/26 05:25:56;;;;;;;12.73;8.20;;;2.70;99.90;;;;;;5013278;28;20196;-63
2021/04/26 05:28:21;;;;;;;14.17;8.27;;;2.90;99.90;;;;;;5012666;28;20752;-62
2021/04/26 05:30:47;;;;;;;13.97;7.90;;;3.00;99.90;;;;;;5012918;28;20255;-62
2021/04/26 05:33:15;;;;;;;14.37;8.67;;;3.20;99.90;;;;;;5012927;28;20805;-62
2021/04/26 05:35:40;;;;;;;9.00;7.27;;;3.30;99.90;;;;;;5012691;28;20200;-62
2021/04/26 05:38:14;;;;;;;10.23;7.53;;;3.30;99.90;;;;;;5012475;28;20223;-62
2021/04/26 05:40:40;;;;;;;13.30;7.70;;;3.40;99.90;;;;;;5012489;28;20172;-63
2021/04/26 05:43:08;;;;;;;12.67;7.17;;;3.50;99.90;;;;;;5012749;28;20271;-63
2021/04/26 05:45:35;;;;;;;14.00;8.37;;;3.60;99.90;;;;;;5012676;28;20623;-63
2021/04/26 05:48:02;;;;;;;27.90;14.40;;;3.70;99.90;;;;;;5012660;28;20715;-63
2021/04/26 05:50:28;;;;;;;20.77;11.70;;;4.00;99.90;;;;;;5012270;28;20627;-63
2021/04/26 05:52:55;;;;;;;14.17;6.67;;;4.30;99.90;;;;;;5012559;28;20267;-63
2021/04/26 05:55:21;;;;;;;13.53;6.47;;;4.90;99.90;;;;;;5012487;28;20180;-63
2021/04/26 05:57:47;;;;;;;9.23;4.73;;;5.50;99.90;;;;;;5012165;28;20208;-64
2021/04/26 06:00:13;;;;;;;7.70;4.87;;;6.10;99.90;;;;;;5012304;28;20175;-64
2021/04/26 06:02:39;;;;;;;5.43;3.70;;;6.80;99.90;;;;;;5012264;28;20180;-62
2021/04/26 06:05:05;;;;;;;8.50;4.20;;;7.50;99.90;;;;;;5012559;28;20250;-63
2021/04/26 06:07:31;;;;;;;6.83;4.30;;;8.20;99.90;;;;;;5012014;28;20196;-63
2021/04/26 06:09:56;;;;;;;7.30;4.10;;;8.70;99.90;;;;;;5012279;28;20611;-63
2021/04/26 06:12:22;;;;;;;11.90;4.10;;;9.20;99.90;;;;;;5011880;28;20183;-63
2021/04/26 06:14:47;;;;;;;8.13;3.73;;;9.80;99.90;;;;;;5012365;28;20527;-64
2021/04/26 06:17:13;;;;;;;8.40;4.33;;;10.00;99.90;;;;;;5012118;28;20180;-64
2021/04/26 06:19:38;;;;;;;7.57;3.90;;;10.30;99.90;;;;;;5012108;28;20180;-63
2021/04/26 06:22:04;;;;;;;6.80;3.37;;;10.60;99.90;;;;;;5011687;28;20172;-63
2021/04/26 06:24:30;;;;;;;6.80;3.40;;;10.70;99.90;;;;;;5012520;28;20249;-63
2021/04/26 06:26:55;;;;;;;3.80;3.40;;;10.80;99.90;;;;;;5011977;28;20666;-63
2021/04/26 06:29:21;;;;;;;7.30;3.80;;;10.90;99.90;;;;;;5012034;28;20204;-64
2021/04/26 06:31:46;;;;;;;7.20;3.97;;;11.00;99.90;;;;;;5011424;28;20679;-63
2021/04/26 06:34:12;;;;;;;5.33;3.40;;;10.90;99.90;;;;;;5012071;28;20183;-63
2021/04/26 06:36:38;;;;;;;4.90;3.37;;;11.20;99.90;;;;;;5011641;28;20250;-63
2021/04/26 06:39:04;;;;;;;6.30;3.67;;;11.60;99.90;;;;;;5011897;28;20191;-63
2021/04/26 06:41:29;;;;;;;5.23;3.83;;;12.10;99.90;;;;;;5011306;28;20180;-64
2021/04/26 06:43:55;;;;;;;10.30;3.93;;;12.40;99.90;;;;;;5012043;28;20732;-63
2021/04/26 06:46:20;;;;;;;8.53;4.63;;;12.20;99.90;;;;;;5010814;28;20207;-63
2021/04/26 06:48:47;;;;;;;9.53;4.00;;;12.40;99.90;;;;;;5011608;28;20670;-63
2021/04/26 06:51:13;;;;;;;6.40;3.77;;;12.60;99.90;;;;;;5011338;28;20177;-63
2021/04/26 06:53:38;;;;;;;7.93;3.60;;;12.80;99.90;;;;;;5011448;28;20584;-63
2021/04/26 06:56:04;;;;;;;6.83;3.80;;;12.90;99.90;;;;;;5011528;28;20171;-63
2021/04/26 06:58:30;;;;;;;6.13;4.03;;;13.30;99.90;;;;;;5011270;28;20204;-63
2021/04/26 07:00:55;;;;;;;6.63;3.40;;;13.10;99.90;;;;;;5011148;28;20172;-63
2021/04/26 07:03:21;;;;;;;5.90;3.83;;;13.20;99.90;;;;;;5011689;28;20523;-63
2021/04/26 07:05:47;;;;;;;6.80;3.90;;;13.00;99.90;;;;;;5011352;28;20203;-63
2021/04/26 07:08:13;;;;;;;7.93;4.20;;;13.20;99.90;;;;;;5010984;28;20196;-62
2021/04/26 07:10:38;;;;;;;6.77;4.00;;;13.40;99.90;;;;;;5010850;28;20168;-63
2021/04/26 07:13:04;;;;;;;5.53;4.07;;;13.70;99.90;;;;;;5011654;28;20660;-63
2021/04/26 07:15:30;;;;;;;7.17;3.33;;;13.80;99.90;;;;;;5010804;28;20191;-63
2021/04/26 07:17:55;;;;;;;6.20;3.67;;;13.70;99.90;;;;;;5011426;28;20245;-64
2021/04/26 07:20:21;;;;;;;5.13;3.10;;;13.60;99.90;;;;;;5011114;28;20540;-63
2021/04/26 07:22:47;;;;;;;5.47;2.90;;;13.60;99.90;;;;;;5011612;28;20191;-63
2021/04/26 07:25:13;;;;;;;6.87;2.70;;;13.60;99.90;;;;;;5010678;28;20192;-63
2021/04/26 07:27:39;;;;;;;4.43;2.40;;;13.40;99.90;;;;;;5011200;28;20208;-64
2021/04/26 07:30:06;;;;;;;4.20;2.50;;;13.20;99.90;;;;;;5011446;28;20214;-63
2021/04/26 07:32:32;;;;;;;7.70;2.57;;;13.40;99.90;;;;;;5011409;28;20518;-63
2021/04/26 07:34:58;;;;;;;5.07;2.73;;;13.50;99.90;;;;;;5011454;28;20203;-63
2021/04/26 07:37:25;;;;;;;5.23;2.30;;;13.50;98.50;;;;;;5011327;28;20196;-63
2021/04/26 07:39:51;;;;;;;3.63;2.30;;;13.70;99.90;;;;;;5011096;28;20636;-63
2021/04/26 07:42:17;;;;;;;5.13;2.60;;;13.70;98.50;;;;;;5011271;28;20183;-63
2021/04/26 07:44:42;;;;;;;2.60;2.40;;;13.90;97.90;;;;;;5011491;28;20172;-63
2021/04/26 07:47:09;;;;;;;4.17;2.40;;;14.20;99.10;;;;;;5011274;28;20571;-63
2021/04/26 07:49:35;;;;;;;3.53;2.17;;;14.50;97.10;;;;;;5011196;28;20222;-64
2021/04/26 07:52:00;;;;;;;4.43;2.17;;;14.80;97.00;;;;;;5011162;28;20177;-64
2021/04/26 07:54:26;;;;;;;2.50;2.30;;;15.40;97.90;;;;;;5011069;28;20168;-64
2021/04/26 07:56:52;;;;;;;2.90;2.00;;;15.90;96.80;;;;;;5010913;28;20204;-64
2021/04/26 07:59:19;;;;;;;2.70;1.83;;;15.90;93.30;;;;;;5012801;28;20192;-64
2021/04/26 08:01:46;;;;;;;2.77;2.10;;;15.70;91.70;;;;;;5014723;28;20180;-64
2021/04/26 08:04:11;;;;;;;2.17;1.73;;;15.40;91.70;;;;;;5014543;28;20168;-64
2021/04/26 08:06:38;;;;;;;4.97;1.90;;;15.50;90.80;;;;;;5014654;28;20227;-64
2021/04/26 08:09:05;;;;;;;5.37;1.80;;;15.30;88.70;;;;;;5014522;28;20188;-64
2021/04/26 08:11:31;;;;;;;3.37;1.70;;;15.40;91.00;;;;;;5012032;28;20173;-64
2021/04/26 08:13:56;;;;;;;2.53;1.80;;;15.50;87.40;;;;;;5014856;28;20226;-64
2021/04/26 08:16:22;;;;;;;2.03;1.57;;;15.70;91.10;;;;;;5014169;28;20267;-64
2021/04/26 08:18:48;;;;;;;5.10;1.70;;;16.10;87.00;;;;;;5014412;28;20199;-64
2021/04/26 08:21:13;;;;;;;2.50;1.63;;;16.50;88.80;;;;;;5014078;28;20230;-64
2021/04/26 08:23:42;;;;;;;8.57;1.95;;;16.70;85.80;;;;;;5014581;28;20265;-64
2021/04/26 08:26:11;;;;;;;2.23;1.57;;;16.70;80.80;;;;;;5014288;28;20702;-64
2021/04/26 08:28:37;;;;;;;2.73;1.53;;;16.30;78.90;;;;;;5013857;28;20290;-64
2021/04/26 08:31:07;;;;;;;6.27;2.00;;;16.50;81.10;;;;;;5013887;28;20273;-64
2021/04/26 08:33:35;;;;;;;2.87;1.50;;;16.80;84.50;;;;;;5014640;28;20656;-64
2021/04/26 08:36:00;;;;;;;3.87;1.80;;;17.20;81.20;;;;;;5014171;28;20180;-64
2021/04/26 08:38:26;;;;;;;2.50;1.60;;;17.30;77.40;;;;;;5014045;28;20192;-64
2021/04/26 08:40:51;;;;;;;5.53;1.47;;;16.80;77.40;;;;;;5013705;28;20267;-64
2021/04/26 08:43:17;;;;;;;2.17;1.77;;;16.50;77.20;;;;;;5013763;28;20211;-64
2021/04/26 08:45:43;;;;;;;2.90;1.50;;;16.60;76.40;;;;;;5012830;28;20238;-64
2021/04/26 08:48:09;;;;;;;3.20;1.50;;;16.90;75.20;;;;;;5013803;28;20200;-64
2021/04/26 08:50:34;;;;;;;3.37;1.77;;;16.80;73.70;;;;;;5013602;28;20179;-64
2021/04/26 08:53:00;;;;;;;2.17;1.50;;;16.60;72.60;;;;;;5013748;28;20183;-64
2021/04/26 08:55:26;;;;;;;2.40;1.90;;;16.50;71.70;;;;;;5013815;28;20172;-64
2021/04/26 08:57:52;;;;;;;1.63;1.53;;;16.60;73.10;;;;;;5013565;28;20200;-64
2021/04/26 09:00:18;;;;;;;4.40;2.00;;;16.70;71.90;;;;;;5013475;28;20168;-64
2021/04/26 09:03:01;;;;;;;3.23;1.67;;;16.50;70.60;;;;;;5013246;28;20227;-64
2021/04/26 09:05:28;;;;;;;2.03;1.60;;;16.10;73.10;;;;;;5013808;28;20231;-64
2021/04/26 09:07:57;;;;;;;2.90;1.50;;;16.10;71.40;;;;;;5013424;28;20199;-64
2021/04/26 09:10:50;;;;;;;2.17;1.73;;;16.20;72.60;;;;;;5012649;28;20180;-64
2021/04/26 09:13:32;;;;;;;4.80;1.77;;;16.00;72.40;;;;;;5013549;28;20176;-64
2021/04/26 09:16:02;;;;;;;6.00;1.93;;;16.50;73.70;;;;;;5013526;28;20204;-64
2021/04/26 09:18:48;;;;;;;4.43;1.97;;;16.60;68.10;;;;;;5013319;28;20208;-64
2021/04/26 09:21:32;;;;;;;4.23;1.80;;;16.30;70.50;;;;;;5012950;28;20275;-64
2021/04/26 09:24:17;;;;;;;2.90;1.73;;;16.50;71.00;;;;;;5012377;28;20180;-64
2021/04/26 09:26:46;;;;;;;3.20;1.50;;;16.30;70.00;;;;;;5012971;28;20953;-64
2021/04/26 09:29:12;;;;;;;4.23;1.87;;;16.20;69.10;;;;;;5013765;28;20207;-63
2021/04/26 09:31:38;;;;;;;4.07;2.13;;;16.50;70.80;;;;;;5012624;28;20591;-64
2021/04/26 09:34:04;;;;;;;2.23;1.53;;;16.60;69.80;;;;;;5013434;28;20203;-64
2021/04/26 09:36:33;;;;;;;2.40;1.63;;;16.90;71.60;;;;;;5012756;28;20234;-63
2021/04/26 09:39:03;;;;;;;2.10;1.45;;;17.20;69.60;;;;;;5013452;28;20673;-63
2021/04/26 09:41:31;;;;;;;2.22;1.67;;;17.30;75.00;;;;;;5012517;28;20522;-63
2021/04/26 09:43:59;;;;;;;6.60;1.88;;;17.60;72.80;;;;;;5013109;28;20188;-63
2021/04/26 09:46:42;;;;;;;3.80;1.52;;;18.10;70.20;;;;;;5012618;28;20596;-63
2021/04/26 09:49:27;;;;;;;1.92;1.60;;;18.40;68.70;;;;;;5012906;28;20211;-63
2021/04/26 09:51:56;;;;;;;1.48;1.38;;;18.60;65.70;;;;;;5012308;28;20175;-64
2021/04/26 09:54:35;;;;;;;2.17;1.70;;;18.30;65.50;;;;;;5012896;28;20172;-64
2021/04/26 09:57:01;;;;;;;7.80;1.75;;;18.10;68.10;;;;;;5012452;28;20274;-63
2021/04/26 09:59:27;;;;;;;2.00;1.65;;;18.10;64.10;;;;;;5012485;28;20186;-64
2021/04/26 10:01:53;;;;;;;2.15;1.48;;;18.20;70.20;;;;;;5012449;28;20230;-64
2021/04/26 10:04:19;;;;;;;3.40;1.85;;;18.40;66.30;;;;;;5012488;28;20180;-64
2021/04/26 10:06:45;;;;;;;1.77;1.65;;;18.40;69.50;;;;;;5012568;28;20210;-64
2021/04/26 10:09:10;;;;;;;2.07;1.50;;;18.60;69.10;;;;;;5012420;28;20196;-63
2021/04/26 10:11:37;;;;;;;2.97;1.90;;;18.40;67.20;;;;;;5012204;28;20180;-64
2021/04/26 10:14:05;;;;;;;1.50;1.38;;;18.20;68.60;;;;;;5012466;28;20176;-64
2021/04/26 10:16:57;;;;;;;2.00;1.45;;;18.30;67.30;;;;;;5012213;28;20187;-64
2021/04/26 10:19:30;;;;;;;1.90;1.40;;;18.50;63.30;;;;;;5012397;28;20176;-63
2021/04/26 10:21:58;;;;;;;2.30;1.75;;;18.60;65.80;;;;;;5011328;28;20696;-63
2021/04/26 10:24:28;;;;;;;2.03;1.50;;;18.70;63.50;;;;;;5012042;28;20242;-63
2021/04/26 10:27:00;;;;;;;2.25;1.50;;;19.00;69.70;;;;;;5012200;28;20210;-64
2021/04/26 10:29:26;;;;;;;1.77;1.60;;;19.20;66.10;;;;;;5012055;28;20186;-64
2021/04/26 10:32:01;;;;;;;3.40;1.73;;;19.50;70.20;;;;;;5012052;28;20168;-63
2021/04/26 10:34:34;;;;;;;2.55;2.08;;;20.10;66.70;;;;;;5011850;28;20176;-63
2021/04/26 10:37:05;;;;;;;5.32;1.70;;;20.30;63.90;;;;;;5012291;28;20268;-63
2021/04/26 10:39:33;;;;;;;2.35;1.60;;;19.60;63.10;;;;;;5011826;28;20183;-63
2021/04/26 10:42:08;;;;;;;3.30;1.83;;;18.50;59.40;;;;;;5011695;28;20180;-63
2021/04/26 10:44:40;;;;;;;8.85;2.10;;;18.00;64.80;;;;;;5011930;28;20184;-64
2021/04/26 10:47:22;;;;;;;3.20;1.65;;;18.40;65.00;;;;;;5011630;28;20203;-64
2021/04/26 10:50:09;;;;;;;1.63;1.52;;;19.10;66.60;;;;;;5011730;28;20199;-63
2021/04/26 10:52:37;;;;;;;6.18;1.83;;;19.70;66.90;;;;;;5011377;28;20180;-64
2021/04/26 10:55:08;;;;;;;2.40;1.65;;;19.80;64.40;;;;;;5012029;28;20168;-64
2021/04/26 10:57:45;;;;;;;2.70;1.55;;;20.10;64.70;;;;;;5011572;28;20200;-64
2021/04/26 11:02:52;;;;;;;3.35;2.10;;;20.30;65.20;;;;;;5011604;28;20216;-64
2021/04/26 11:05:46;;;;;;;4.68;1.98;;;20.70;61.60;;;;;;5011787;28;20202;-63
2021/04/26 11:08:33;;;;;;;2.78;1.98;;;21.10;66.70;;;;;;5009623;28;20749;-64
2021/04/26 11:11:09;;;;;;;2.70;1.90;;;20.50;58.40;;;;;;5011318;28;20180;-64
2021/04/26 11:13:34;;;;;;;3.60;1.80;;;20.60;58.50;;;;;;5011694;28;20206;-64
2021/04/26 11:16:05;;;;;;;2.85;1.83;;;20.40;59.50;;;;;;5011512;28;20267;-63
2021/04/26 11:18:32;;;;;;;3.33;1.75;;;20.40;61.20;;;;;;5011191;28;20230;-64
2021/04/26 11:20:58;;;;;;;2.13;1.80;;;20.50;59.00;;;;;;5011092;28;20202;-64
2021/04/26 11:23:46;;;;;;;2.05;1.52;;;20.40;61.50;;;;;;5011703;28;20172;-64
2021/04/26 11:26:12;;;;;;;3.25;2.28;;;20.70;59.70;;;;;;5011496;28;20235;-63
2021/04/26 11:29:05;;;;;;;2.47;2.05;;;20.60;57.00;;;;;;5011296;28;20258;-63
2021/04/26 11:31:45;;;;;;;4.05;1.92;;;20.50;59.50;;;;;;5010863;28;20561;-63
2021/04/26 11:34:19;;;;;;;3.33;2.85;;;20.90;59.30;;;;;;5015219;28;20172;-63
2021/04/26 11:37:03;;;;;;;3.50;2.25;;;20.80;58.20;;;;;;5015145;28;20183;-63
2021/04/26 11:39:31;;;;;;;3.22;1.77;;;20.90;58.50;;;;;;5015089;28;20262;-64
2021/04/26 11:41:57;;;;;;;2.85;2.10;;;21.10;59.60;;;;;;5015310;28;20230;-63
2021/04/26 11:44:31;;;;;;;2.60;2.03;;;20.80;56.10;;;;;;5015224;28;20237;-63
2021/04/26 11:47:09;;;;;;;3.10;2.30;;;20.60;59.70;;;;;;5015401;28;20200;-63
2021/04/26 11:49:43;;;;;;;2.88;1.70;;;20.80;61.80;;;;;;5014914;28;20267;-64
2021/04/26 11:52:19;;;;;;;3.33;2.15;;;21.40;62.30;;;;;;5015265;28;20174;-63
2021/04/26 11:54:47;;;;;;;2.83;2.00;;;21.80;58.40;;;;;;5014359;28;20262;-63
2021/04/26 11:57:22;;;;;;;3.70;2.15;;;21.60;55.00;;;;;;5015223;28;20232;-64
2021/04/26 11:59:49;;;;;;;2.88;2.25;;;20.90;54.90;;;;;;5014585;28;20178;-64
2021/04/26 12:02:27;;;;;;;3.97;2.40;;;20.90;58.00;;;;;;5014983;28;20184;-64
2021/04/26 12:04:54;;;;;;;4.65;2.65;;;21.50;58.50;;;;;;5014635;28;20187;-64
2021/04/26 12:07:20;;;;;;;4.13;2.67;;;21.90;57.20;;;;;;5014735;28;20204;-63
2021/04/26 12:09:57;;;;;;;11.60;2.90;;;21.30;57.20;;;;;;5014574;28;20172;-64
2021/04/26 12:12:29;;;;;;;5.55;2.70;;;21.20;55.70;;;;;;5014548;28;20218;-63
2021/04/26 12:14:56;;;;;;;3.72;2.33;;;21.10;56.70;;;;;;5014521;28;20230;-63
2021/04/26 12:17:25;;;;;;;3.17;2.70;;;21.00;57.50;;;;;;5014815;28;20192;-64
2021/04/26 12:19:52;;;;;;;3.53;2.55;;;21.30;58.30;;;;;;5014041;28;20202;-63
2021/04/26 12:22:19;;;;;;;2.63;2.42;;;21.00;55.20;;;;;;5014626;28;20677;-63
2021/04/26 12:24:45;;;;;;;2.72;2.50;;;21.00;58.50;;;;;;5014423;28;20199;-63
2021/04/26 12:27:16;;;;;;;5.22;2.40;;;21.20;58.60;;;;;;5014359;28;20239;-63
2021/04/26 12:29:42;;;;;;;3.60;2.20;;;21.70;59.20;;;;;;5014203;28;20716;-63
2021/04/26 12:32:18;;;;;;;2.78;2.50;;;22.20;57.20;;;;;;5014503;28;20180;-63
2021/04/26 12:34:53;;;;;;;7.97;2.50;;;22.60;55.90;;;;;;5013926;28;20622;-63
2021/04/26 12:37:21;;;;;;;3.85;2.72;;;23.30;56.50;;;;;;5014455;28;20870;-64
2021/04/26 12:39:48;;;;;;;3.80;2.60;;;23.30;54.50;;;;;;5013811;28;20272;-64
2021/04/26 12:42:16;;;;;;;6.07;2.90;;;23.30;54.40;;;;;;5014485;28;20630;-63
2021/04/26 12:44:43;;;;;;;3.42;2.70;;;23.30;52.90;;;;;;5012662;28;20184;-63
2021/04/26 12:47:25;;;;;;;2.72;2.42;;;23.00;53.70;;;;;;5014139;28;20212;-63
2021/04/26 12:50:16;;;;;;;3.30;2.70;;;22.70;57.20;;;;;;5013775;28;20183;-63
2021/04/26 12:53:02;;;;;;;4.38;2.92;;;22.90;53.20;;;;;;5013914;28;20176;-64
2021/04/26 12:55:27;;;;;;;4.28;2.85;;;23.00;55.10;;;;;;5013819;28;20191;-64
2021/04/26 12:58:04;;;;;;;4.72;3.33;;;22.50;54.00;;;;;;5013946;28;20201;-64